createdAt,value
2022-09-16T00:07:54.894Z,7.20
2022-09-16T00:13:26.664Z,7.45
2022-09-16T00:18:58.620Z,7.45
2022-09-16T00:24:30.339Z,7.50
2022-09-16T00:30:02.169Z,7.50
2022-09-16T00:35:33.948Z,7.60
2022-09-16T00:41:05.752Z,7.75
2022-09-16T00:46:37.414Z,7.85
2022-09-16T00:52:09.360Z,7.90
2022-09-16T00:57:41.039Z,7.95
2022-09-16T01:03:12.974Z,8.05
2022-09-16T01:08:44.566Z,8.20
2022-09-16T01:14:16.286Z,8.35
2022-09-16T01:25:19.802Z,8.65
2022-09-16T01:30:51.204Z,8.70
2022-09-16T01:36:22.607Z,8.80
2022-09-16T01:41:54.883Z,8.85
2022-09-16T01:47:26.644Z,8.90
2022-09-16T01:52:58.396Z,9.00
2022-09-16T01:58:29.827Z,9.20
2022-09-16T02:04:01.713Z,9.25
2022-09-16T02:09:33.701Z,9.30
2022-09-16T02:15:05.206Z,9.35
2022-09-16T02:20:37.064Z,9.50
2022-09-16T02:26:08.352Z,9.50
2022-09-16T02:31:39.900Z,9.60
2022-09-16T02:37:11.355Z,9.70
2022-09-16T02:42:43.149Z,9.75
2022-09-16T02:48:14.905Z,9.85
2022-09-16T02:53:46.738Z,9.85
2022-09-16T02:59:18.399Z,10.10
2022-09-16T03:04:50.196Z,10.25
2022-09-16T03:10:21.983Z,10.25
2022-09-16T03:15:53.664Z,10.35
2022-09-16T03:21:25.395Z,10.35
2022-09-16T03:26:57.338Z,10.45
2022-09-16T03:32:29.088Z,10.55
2022-09-16T03:38:00.923Z,10.70
2022-09-16T03:43:32.958Z,10.80
2022-09-16T03:49:04.304Z,10.85
2022-09-16T03:54:36.125Z,10.95
2022-09-16T04:00:07.954Z,11.15
2022-09-16T04:08:00.565Z,0.98
2022-09-16T04:21:14.398Z,1.48
2022-09-16T04:37:48.657Z,1.76
2022-09-16T04:43:20.140Z,1.96
2022-09-16T04:48:51.549Z,2.24
2022-09-16T04:54:22.932Z,2.33
2022-09-16T05:05:24.177Z,2.55
2022-09-16T05:10:55.537Z,2.67
2022-09-16T05:16:26.906Z,2.78
2022-09-16T05:21:58.436Z,2.71
2022-09-16T05:27:30.043Z,2.87
2022-09-16T05:33:01.432Z,2.74
2022-09-16T05:38:32.865Z,2.57
2022-09-16T05:44:04.197Z,2.71
2022-09-16T05:49:35.389Z,2.61
2022-09-16T06:00:36.044Z,2.50
2022-09-16T06:06:08.041Z,2.55
2022-09-16T06:11:39.755Z,2.65
2022-09-16T06:17:11.432Z,2.70
2022-09-16T06:22:42.774Z,2.80
2022-09-16T06:28:14.250Z,2.85
2022-09-16T06:33:45.945Z,2.90
2022-09-16T06:39:17.626Z,3.05
2022-09-16T06:44:49.069Z,3.10
2022-09-16T06:50:20.332Z,3.15
2022-09-16T06:55:51.807Z,3.35
2022-09-16T07:01:23.656Z,3.45
2022-09-16T07:07:09.253Z,3.45
2022-09-16T07:12:26.591Z,3.50
2022-09-16T07:17:58.018Z,3.65
2022-09-16T07:23:29.587Z,3.75
2022-09-16T07:29:01.015Z,3.90
2022-09-16T07:34:32.287Z,4.05
2022-09-16T07:40:05.606Z,4.10
2022-09-16T07:45:36.897Z,4.30
2022-09-16T07:51:08.516Z,4.40
2022-09-16T07:56:40.014Z,4.50
2022-09-16T08:02:12.013Z,4.60
2022-09-16T08:07:44.102Z,4.60
2022-09-16T08:13:15.328Z,4.65
2022-09-16T08:18:46.666Z,4.80
2022-09-16T08:24:18.382Z,5.00
2022-09-16T08:29:49.778Z,5.05
2022-09-16T08:35:21.122Z,5.15
2022-09-16T08:46:21.940Z,5.45
2022-09-16T08:51:53.338Z,5.60
2022-09-16T09:02:54.405Z,6.00
2022-09-16T09:13:57.868Z,6.25
2022-09-16T09:19:29.246Z,6.35
2022-09-16T09:25:00.629Z,6.50
2022-09-16T09:30:32.324Z,6.55
2022-09-16T09:36:03.681Z,6.60
2022-09-16T09:47:04.627Z,6.75
2022-09-16T09:52:36.086Z,6.80
2022-09-16T09:58:07.944Z,7.00
2022-09-16T10:03:39.644Z,7.10
2022-09-16T10:14:40.422Z,7.40
2022-09-16T10:20:12.246Z,7.50
2022-09-16T10:25:43.652Z,7.55
2022-09-16T10:31:15.369Z,7.60
2022-09-16T10:42:16.355Z,7.95
2022-09-16T10:47:47.920Z,8.10
2022-09-16T10:53:19.189Z,8.25
2022-09-16T11:04:22.438Z,8.35
2022-09-16T11:09:54.201Z,8.50
2022-09-16T11:31:58.432Z,8.75
2022-09-16T11:37:30.306Z,9.00
2022-09-16T11:43:01.980Z,9.15
2022-09-16T11:48:33.747Z,9.25
2022-09-16T11:54:05.504Z,9.30
2022-09-16T11:59:37.205Z,9.45
2022-09-16T12:10:38.055Z,9.60
2022-09-16T12:16:10.593Z,9.70
2022-09-16T12:21:42.261Z,9.80
2022-09-16T12:27:13.911Z,9.80
2022-09-16T12:32:45.585Z,9.85
2022-09-16T12:38:17.538Z,10.00
2022-09-16T12:43:49.216Z,10.05
2022-09-16T12:49:21.002Z,10.10
2022-09-16T12:55:07.298Z,10.20
2022-09-16T13:00:23.957Z,10.35
2022-09-16T13:05:55.438Z,10.40
2022-09-16T13:16:59.380Z,10.55
2022-09-16T13:22:31.054Z,10.75
2022-09-16T13:28:02.636Z,10.85
2022-09-16T13:33:34.666Z,10.90
2022-09-16T13:39:06.890Z,11.10
2022-09-16T13:44:38.865Z,11.25
2022-09-16T13:55:40.049Z,11.50
2022-09-16T14:01:13.926Z,11.60
2022-09-16T14:06:45.675Z,11.80
2022-09-16T14:12:17.508Z,11.85
2022-09-16T14:17:51.553Z,11.95
2022-09-16T14:23:21.239Z,12.05
2022-09-16T14:28:52.775Z,12.15
2022-09-16T14:34:24.615Z,12.30
2022-09-16T14:39:56.465Z,12.35
2022-09-16T14:45:27.862Z,12.40
2022-09-16T14:50:59.460Z,12.45
2022-09-16T14:56:30.972Z,12.55
2022-09-16T15:02:02.905Z,12.55
2022-09-16T15:07:34.431Z,12.70
2022-09-16T15:13:06.372Z,12.95
2022-09-16T15:18:38.178Z,13.10
2022-09-16T15:24:09.938Z,13.10
2022-09-16T15:29:41.537Z,13.15
2022-09-16T15:35:13.320Z,13.20
2022-09-16T15:40:45.072Z,13.20
2022-09-16T15:51:49.504Z,13.45
2022-09-16T15:57:21.106Z,13.65
2022-09-16T16:02:52.792Z,13.65
2022-09-16T16:08:24.467Z,13.65
2022-09-16T16:13:59.851Z,13.65
2022-09-16T16:19:27.438Z,13.65
2022-09-16T16:30:28.597Z,13.90
2022-09-16T16:36:02.068Z,14.00
2022-09-16T16:41:33.256Z,14.00
2022-09-16T16:47:04.718Z,14.10
2022-09-16T16:52:36.374Z,14.20
2022-09-16T16:58:08.282Z,14.20
2022-09-16T17:03:40.044Z,14.30
2022-09-16T17:09:15.699Z,14.35
2022-09-16T17:14:43.070Z,14.50
2022-09-16T17:20:14.830Z,14.60
2022-09-16T17:25:46.498Z,14.60
2022-09-16T17:27:58.420Z,1.00
2022-09-16T17:33:30.133Z,0.98
2022-09-16T17:39:01.684Z,0.98
2022-09-16T17:44:33.034Z,1.72
2022-09-16T17:50:04.394Z,1.57
2022-09-16T17:55:35.769Z,1.80
2022-09-16T18:03:29.374Z,3.93
2022-09-16T18:09:01.007Z,2.95
2022-09-16T18:14:32.605Z,2.95
2022-09-16T18:20:07.082Z,2.69
2022-09-16T18:25:35.523Z,2.74
2022-09-16T18:31:07.016Z,2.45
2022-09-16T18:36:38.601Z,2.24
2022-09-16T18:42:10.333Z,2.20
2022-09-16T18:47:42.043Z,2.29
2022-09-16T18:53:13.598Z,2.06
2022-09-16T18:58:58.252Z,1.96
2022-09-16T19:04:16.260Z,1.96
2022-09-16T19:09:47.670Z,2.03
2022-09-16T19:15:18.849Z,2.10
2022-09-16T19:20:50.559Z,2.02
2022-09-16T19:26:22.139Z,2.08
2022-09-16T19:31:53.386Z,2.13
2022-09-16T19:37:25.264Z,2.18
2022-09-16T19:42:56.539Z,2.11
2022-09-16T19:48:27.843Z,2.15
2022-09-16T19:53:59.393Z,2.30
2022-09-16T19:59:30.997Z,2.40
2022-09-16T20:05:05.092Z,2.55
2022-09-16T20:10:34.807Z,2.85
2022-09-16T20:16:05.946Z,2.90
2022-09-16T20:27:08.686Z,2.95
2022-09-16T20:32:40.014Z,3.00
2022-09-16T20:38:11.417Z,3.15
2022-09-16T20:43:43.048Z,3.20
2022-09-16T20:49:14.232Z,3.25
2022-09-16T20:54:45.712Z,3.40
2022-09-16T21:00:17.678Z,3.40
2022-09-16T21:05:49.364Z,3.65
2022-09-16T21:11:21.028Z,3.80
2022-09-16T21:16:52.640Z,4.00
2022-09-16T21:22:24.410Z,4.00
2022-09-16T21:27:56.171Z,4.05
2022-09-16T21:33:28.061Z,4.20
2022-09-16T21:38:59.709Z,4.30
2022-09-16T21:44:30.918Z,4.35
2022-09-16T21:50:02.241Z,4.50
2022-09-16T21:55:33.520Z,4.55
2022-09-16T22:01:05.122Z,4.65
2022-09-16T22:06:37.022Z,4.70
2022-09-16T22:12:08.681Z,4.75
2022-09-16T22:17:40.394Z,4.75
2022-09-16T22:23:12.413Z,4.80
2022-09-16T22:28:43.959Z,5.00
2022-09-16T22:34:15.445Z,5.05
2022-09-16T22:39:47.097Z,5.15
2022-09-16T22:45:18.632Z,5.20
2022-09-16T22:50:50.120Z,5.25
2022-09-16T22:56:21.700Z,5.50
2022-09-16T23:01:53.216Z,5.55
2022-09-16T23:07:24.519Z,5.55
2022-09-16T23:12:55.715Z,5.60
2022-09-16T23:18:27.082Z,5.75
2022-09-16T23:23:58.224Z,5.85
2022-09-16T23:29:29.857Z,5.90
2022-09-16T23:35:01.737Z,5.95
2022-09-16T23:40:33.707Z,6.15
2022-09-16T23:46:05.195Z,6.30
2022-09-16T23:51:36.820Z,6.30
